Hialeah Lakes, Florida
Current Conditions -  °F | °C
As of 7:09 AM on Friday 28 Nov 2014 (Local Time) from KOPF Reporting Station
Few Clouds Few Clouds  
Wind Chill: 51°   Ceiling: Unl
Heat Index: 51°   Visibility: 10mi
Dew Point: 42°   Wind: 13mph
Humidity: 71%   Direction: 340°NNW
Pressure: 30.22"   Gusts: NA
Location:  25.9357°N, 80.3817°W
Report Text: KOPF 281209Z 34011KT 10SM FEW002 11/06 A3022 RMK AO2 T01060056
Loading
Personal Weather Stations






























Interactive Weather Map New forecast layout! Learn more

10-Day Weather Forecast

Advertisements
Track Severe Weather on mobile